sensor_id;sensor_type;location;lat;lon;timestamp;temperature;humidity
36322;DHT22;23564;48.290;11.460;2022-08-25T00:01:37;17.40;99.90
36322;DHT22;23564;48.290;11.460;2022-08-25T00:04:07;17.30;99.90
36322;DHT22;23564;48.290;11.460;2022-08-25T00:06:34;17.30;99.90
36322;DHT22;23564;48.290;11.460;2022-08-25T00:09:00;17.30;99.90
36322;DHT22;23564;48.290;11.460;2022-08-25T00:11:29;17.30;99.90
36322;DHT22;23564;48.290;11.460;2022-08-25T00:13:58;17.20;99.90
36322;DHT22;23564;48.290;11.460;2022-08-25T00:16:25;17.20;99.90
36322;DHT22;23564;48.290;11.460;2022-08-25T00:18:55;17.20;99.90
36322;DHT22;23564;48.290;11.460;2022-08-25T00:21:23;17.20;99.90
36322;DHT22;23564;48.290;11.460;2022-08-25T00:23:49;17.20;99.90
36322;DHT22;23564;48.290;11.460;2022-08-25T00:26:16;17.20;99.90
36322;DHT22;23564;48.290;11.460;2022-08-25T00:28:42;17.20;99.90
36322;DHT22;23564;48.290;11.460;2022-08-25T00:31:18;17.20;99.90
36322;DHT22;23564;48.290;11.460;2022-08-25T00:33:45;17.10;99.90
36322;DHT22;23564;48.290;11.460;2022-08-25T00:36:12;17.10;99.90
36322;DHT22;23564;48.290;11.460;2022-08-25T00:38:39;17.10;99.90
36322;DHT22;23564;48.290;11.460;2022-08-25T00:41:05;17.10;99.90
36322;DHT22;23564;48.290;11.460;2022-08-25T00:46:07;17.00;99.90
36322;DHT22;23564;48.290;11.460;2022-08-25T00:48:32;17.10;99.90
36322;DHT22;23564;48.290;11.460;2022-08-25T00:50:59;17.00;99.90
36322;DHT22;23564;48.290;11.460;2022-08-25T00:53:27;17.00;99.90
36322;DHT22;23564;48.290;11.460;2022-08-25T00:55:53;17.00;99.90
36322;DHT22;23564;48.290;11.460;2022-08-25T00:58:22;17.00;99.90
36322;DHT22;23564;48.290;11.460;2022-08-25T01:00:51;17.00;99.90
36322;DHT22;23564;48.290;11.460;2022-08-25T01:03:20;17.00;99.90
36322;DHT22;23564;48.290;11.460;2022-08-25T01:05:47;17.00;99.90
36322;DHT22;23564;48.290;11.460;2022-08-25T01:08:13;17.00;99.90
36322;DHT22;23564;48.290;11.460;2022-08-25T01:10:42;17.00;99.90
36322;DHT22;23564;48.290;11.460;2022-08-25T01:13:15;17.00;99.90
36322;DHT22;23564;48.290;11.460;2022-08-25T01:15:44;17.00;99.90
36322;DHT22;23564;48.290;11.460;2022-08-25T01:18:10;17.10;99.90
36322;DHT22;23564;48.290;11.460;2022-08-25T01:20:36;17.10;99.90
36322;DHT22;23564;48.290;11.460;2022-08-25T01:23:03;17.00;99.90
36322;DHT22;23564;48.290;11.460;2022-08-25T01:28:13;17.10;99.90
36322;DHT22;23564;48.290;11.460;2022-08-25T01:30:40;17.10;99.90
36322;DHT22;23564;48.290;11.460;2022-08-25T01:33:07;17.10;99.90
36322;DHT22;23564;48.290;11.460;2022-08-25T01:35:33;17.10;99.90
36322;DHT22;23564;48.290;11.460;2022-08-25T01:38:00;17.10;99.90
36322;DHT22;23564;48.290;11.460;2022-08-25T01:40:26;17.00;99.90
36322;DHT22;23564;48.290;11.460;2022-08-25T01:45:26;17.10;99.90
36322;DHT22;23564;48.290;11.460;2022-08-25T01:47:52;17.10;99.90
36322;DHT22;23564;48.290;11.460;2022-08-25T01:50:18;17.10;99.90
36322;DHT22;23564;48.290;11.460;2022-08-25T01:52:55;17.10;99.90
36322;DHT22;23564;48.290;11.460;2022-08-25T01:55:23;17.10;99.90
36322;DHT22;23564;48.290;11.460;2022-08-25T01:57:48;17.10;99.90
36322;DHT22;23564;48.290;11.460;2022-08-25T02:00:15;17.00;99.90
36322;DHT22;23564;48.290;11.460;2022-08-25T02:02:41;17.00;99.90
36322;DHT22;23564;48.290;11.460;2022-08-25T02:05:12;17.00;99.90
36322;DHT22;23564;48.290;11.460;2022-08-25T02:07:39;16.90;99.90
36322;DHT22;23564;48.290;11.460;2022-08-25T02:10:06;16.80;99.90
36322;DHT22;23564;48.290;11.460;2022-08-25T02:12:32;16.80;99.90
36322;DHT22;23564;48.290;11.460;2022-08-25T02:15:00;16.70;99.90
36322;DHT22;23564;48.290;11.460;2022-08-25T02:17:28;16.70;99.90
36322;DHT22;23564;48.290;11.460;2022-08-25T02:19:54;16.60;99.90
36322;DHT22;23564;48.290;11.460;2022-08-25T02:22:21;16.60;99.90
36322;DHT22;23564;48.290;11.460;2022-08-25T02:24:47;16.60;99.90
36322;DHT22;23564;48.290;11.460;2022-08-25T02:27:13;16.60;99.90
36322;DHT22;23564;48.290;11.460;2022-08-25T02:29:39;16.60;99.90
36322;DHT22;23564;48.290;11.460;2022-08-25T02:32:05;16.50;99.90
36322;DHT22;23564;48.290;11.460;2022-08-25T02:34:30;16.50;99.90
36322;DHT22;23564;48.290;11.460;2022-08-25T02:36:56;16.50;99.90
36322;DHT22;23564;48.290;11.460;2022-08-25T02:39:22;16.50;99.90
36322;DHT22;23564;48.290;11.460;2022-08-25T02:41:47;16.50;99.90
36322;DHT22;23564;48.290;11.460;2022-08-25T02:44:13;16.50;99.90
36322;DHT22;23564;48.290;11.460;2022-08-25T02:46:39;16.50;99.90
36322;DHT22;23564;48.290;11.460;2022-08-25T02:49:05;16.40;99.90
36322;DHT22;23564;48.290;11.460;2022-08-25T02:51:31;16.40;99.90
36322;DHT22;23564;48.290;11.460;2022-08-25T02:53:59;16.40;99.90
36322;DHT22;23564;48.290;11.460;2022-08-25T02:56:27;16.40;99.90
36322;DHT22;23564;48.290;11.460;2022-08-25T02:58:53;16.40;99.90
36322;DHT22;23564;48.290;11.460;2022-08-25T03:01:20;16.40;99.90
36322;DHT22;23564;48.290;11.460;2022-08-25T03:03:47;16.40;99.90
36322;DHT22;23564;48.290;11.460;2022-08-25T03:06:15;16.30;99.90
36322;DHT22;23564;48.290;11.460;2022-08-25T03:08:42;16.30;99.90
36322;DHT22;23564;48.290;11.460;2022-08-25T03:11:09;16.30;99.90
36322;DHT22;23564;48.290;11.460;2022-08-25T03:13:35;16.30;99.90
36322;DHT22;23564;48.290;11.460;2022-08-25T03:16:01;16.30;99.90
36322;DHT22;23564;48.290;11.460;2022-08-25T03:18:27;16.30;99.90
36322;DHT22;23564;48.290;11.460;2022-08-25T03:20:53;16.30;99.90
36322;DHT22;23564;48.290;11.460;2022-08-25T03:23:19;16.30;99.90
36322;DHT22;23564;48.290;11.460;2022-08-25T03:25:44;16.20;99.90
36322;DHT22;23564;48.290;11.460;2022-08-25T03:28:29;16.30;99.90
36322;DHT22;23564;48.290;11.460;2022-08-25T03:30:58;16.30;99.90
36322;DHT22;23564;48.290;11.460;2022-08-25T03:33:25;16.20;99.90
36322;DHT22;23564;48.290;11.460;2022-08-25T03:35:51;16.20;99.90
36322;DHT22;23564;48.290;11.460;2022-08-25T03:38:17;16.20;99.90
36322;DHT22;23564;48.290;11.460;2022-08-25T03:40:42;16.20;99.90
36322;DHT22;23564;48.290;11.460;2022-08-25T03:43:08;16.20;99.90
36322;DHT22;23564;48.290;11.460;2022-08-25T03:45:33;16.20;99.90
36322;DHT22;23564;48.290;11.460;2022-08-25T03:47:59;16.10;99.90
36322;DHT22;23564;48.290;11.460;2022-08-25T03:50:24;16.10;99.90
36322;DHT22;23564;48.290;11.460;2022-08-25T03:52:52;16.10;99.90
36322;DHT22;23564;48.290;11.460;2022-08-25T03:55:19;16.10;99.90
36322;DHT22;23564;48.290;11.460;2022-08-25T03:57:45;16.10;99.90
36322;DHT22;23564;48.290;11.460;2022-08-25T04:00:11;16.10;99.90
36322;DHT22;23564;48.290;11.460;2022-08-25T04:02:37;16.00;99.90
36322;DHT22;23564;48.290;11.460;2022-08-25T04:05:04;16.00;99.90
36322;DHT22;23564;48.290;11.460;2022-08-25T04:07:30;16.00;99.90
36322;DHT22;23564;48.290;11.460;2022-08-25T04:09:55;16.00;99.90
36322;DHT22;23564;48.290;11.460;2022-08-25T04:12:21;16.00;99.90
36322;DHT22;23564;48.290;11.460;2022-08-25T04:14:47;16.00;99.90
36322;DHT22;23564;48.290;11.460;2022-08-25T04:17:13;16.00;99.90
36322;DHT22;23564;48.290;11.460;2022-08-25T04:19:39;16.00;99.90
36322;DHT22;23564;48.290;11.460;2022-08-25T04:22:04;16.00;99.90
36322;DHT22;23564;48.290;11.460;2022-08-25T04:24:30;16.00;99.90
36322;DHT22;23564;48.290;11.460;2022-08-25T04:26:56;15.90;99.90
36322;DHT22;23564;48.290;11.460;2022-08-25T04:29:24;16.00;99.90
36322;DHT22;23564;48.290;11.460;2022-08-25T04:31:51;15.90;99.90
36322;DHT22;23564;48.290;11.460;2022-08-25T04:34:18;16.00;99.90
36322;DHT22;23564;48.290;11.460;2022-08-25T04:36:44;16.00;99.90
36322;DHT22;23564;48.290;11.460;2022-08-25T04:39:10;15.90;99.90
36322;DHT22;23564;48.290;11.460;2022-08-25T04:41:36;15.90;99.90
36322;DHT22;23564;48.290;11.460;2022-08-25T04:44:02;15.90;99.90
36322;DHT22;23564;48.290;11.460;2022-08-25T04:46:30;15.90;99.90
36322;DHT22;23564;48.290;11.460;2022-08-25T04:48:57;15.90;99.90
36322;DHT22;23564;48.290;11.460;2022-08-25T04:51:32;15.90;99.90
36322;DHT22;23564;48.290;11.460;2022-08-25T04:54:00;16.00;99.90
36322;DHT22;23564;48.290;11.460;2022-08-25T04:56:27;16.00;99.90
36322;DHT22;23564;48.290;11.460;2022-08-25T04:58:53;16.00;99.90
36322;DHT22;23564;48.290;11.460;2022-08-25T05:01:22;16.00;99.90
36322;DHT22;23564;48.290;11.460;2022-08-25T05:03:54;16.10;99.90
36322;DHT22;23564;48.290;11.460;2022-08-25T05:06:20;16.10;99.90
36322;DHT22;23564;48.290;11.460;2022-08-25T05:08:46;16.10;99.90
36322;DHT22;23564;48.290;11.460;2022-08-25T05:11:13;16.10;99.90
36322;DHT22;23564;48.290;11.460;2022-08-25T05:13:39;16.10;99.90
36322;DHT22;23564;48.290;11.460;2022-08-25T05:16:06;16.20;99.90
36322;DHT22;23564;48.290;11.460;2022-08-25T05:18:32;16.20;99.90
36322;DHT22;23564;48.290;11.460;2022-08-25T05:21:04;16.20;99.90
36322;DHT22;23564;48.290;11.460;2022-08-25T05:23:30;16.20;99.90
36322;DHT22;23564;48.290;11.460;2022-08-25T05:26:01;16.30;99.90
36322;DHT22;23564;48.290;11.460;2022-08-25T05:28:27;16.30;99.90
36322;DHT22;23564;48.290;11.460;2022-08-25T05:30:57;16.40;99.90
36322;DHT22;23564;48.290;11.460;2022-08-25T05:33:23;16.40;99.90
36322;DHT22;23564;48.290;11.460;2022-08-25T05:35:49;16.50;99.90
36322;DHT22;23564;48.290;11.460;2022-08-25T05:38:14;16.60;99.90
36322;DHT22;23564;48.290;11.460;2022-08-25T05:40:40;16.60;99.90
36322;DHT22;23564;48.290;11.460;2022-08-25T05:43:06;16.60;99.90
36322;DHT22;23564;48.290;11.460;2022-08-25T05:45:31;16.70;99.90
36322;DHT22;23564;48.290;11.460;2022-08-25T05:47:57;16.70;99.90
36322;DHT22;23564;48.290;11.460;2022-08-25T05:50:22;16.80;99.90
36322;DHT22;23564;48.290;11.460;2022-08-25T05:52:48;16.80;99.90
36322;DHT22;23564;48.290;11.460;2022-08-25T05:55:14;16.90;99.90
36322;DHT22;23564;48.290;11.460;2022-08-25T05:57:40;16.90;99.90
36322;DHT22;23564;48.290;11.460;2022-08-25T06:00:07;17.00;99.90
36322;DHT22;23564;48.290;11.460;2022-08-25T06:02:33;17.00;99.90
36322;DHT22;23564;48.290;11.460;2022-08-25T06:05:16;17.10;99.90
36322;DHT22;23564;48.290;11.460;2022-08-25T06:07:43;17.20;99.90
36322;DHT22;23564;48.290;11.460;2022-08-25T06:10:10;17.20;99.90
36322;DHT22;23564;48.290;11.460;2022-08-25T06:12:36;17.20;99.90
36322;DHT22;23564;48.290;11.460;2022-08-25T06:15:03;17.20;99.90
36322;DHT22;23564;48.290;11.460;2022-08-25T06:17:29;17.20;99.90
36322;DHT22;23564;48.290;11.460;2022-08-25T06:19:55;17.30;99.90
36322;DHT22;23564;48.290;11.460;2022-08-25T06:22:21;17.40;99.90
36322;DHT22;23564;48.290;11.460;2022-08-25T06:24:47;17.40;99.90
36322;DHT22;23564;48.290;11.460;2022-08-25T06:27:13;17.50;99.90
36322;DHT22;23564;48.290;11.460;2022-08-25T06:29:39;17.50;99.90
36322;DHT22;23564;48.290;11.460;2022-08-25T06:32:04;17.60;99.90
36322;DHT22;23564;48.290;11.460;2022-08-25T06:34:30;17.60;99.90
36322;DHT22;23564;48.290;11.460;2022-08-25T06:36:57;17.70;99.90
36322;DHT22;23564;48.290;11.460;2022-08-25T06:39:22;17.70;99.90
36322;DHT22;23564;48.290;11.460;2022-08-25T06:41:55;17.70;99.90
36322;DHT22;23564;48.290;11.460;2022-08-25T06:44:22;17.70;99.90
36322;DHT22;23564;48.290;11.460;2022-08-25T06:46:49;17.80;99.90
36322;DHT22;23564;48.290;11.460;2022-08-25T06:49:15;17.90;99.90
36322;DHT22;23564;48.290;11.460;2022-08-25T06:51:41;17.90;99.90
36322;DHT22;23564;48.290;11.460;2022-08-25T06:54:08;18.00;99.90
36322;DHT22;23564;48.290;11.460;2022-08-25T06:56:39;18.00;99.90
36322;DHT22;23564;48.290;11.460;2022-08-25T06:59:06;18.00;99.90
36322;DHT22;23564;48.290;11.460;2022-08-25T07:01:32;18.10;99.90
36322;DHT22;23564;48.290;11.460;2022-08-25T07:04:00;18.20;99.90
36322;DHT22;23564;48.290;11.460;2022-08-25T07:06:28;18.20;99.90
36322;DHT22;23564;48.290;11.460;2022-08-25T07:08:55;18.30;99.90
36322;DHT22;23564;48.290;11.460;2022-08-25T07:11:21;18.40;99.90
36322;DHT22;23564;48.290;11.460;2022-08-25T07:13:48;18.50;99.90
36322;DHT22;23564;48.290;11.460;2022-08-25T07:16:15;18.60;99.90
36322;DHT22;23564;48.290;11.460;2022-08-25T07:18:41;18.60;99.90
36322;DHT22;23564;48.290;11.460;2022-08-25T07:21:07;18.70;99.90
36322;DHT22;23564;48.290;11.460;2022-08-25T07:23:33;18.70;99.90
36322;DHT22;23564;48.290;11.460;2022-08-25T07:26:17;18.80;99.90
36322;DHT22;23564;48.290;11.460;2022-08-25T07:28:43;18.80;99.90
36322;DHT22;23564;48.290;11.460;2022-08-25T07:31:09;18.90;99.90
36322;DHT22;23564;48.290;11.460;2022-08-25T07:33:35;18.90;99.90
36322;DHT22;23564;48.290;11.460;2022-08-25T07:36:01;18.90;99.90
36322;DHT22;23564;48.290;11.460;2022-08-25T07:38:27;19.00;99.90
36322;DHT22;23564;48.290;11.460;2022-08-25T07:41:00;19.00;99.90
36322;DHT22;23564;48.290;11.460;2022-08-25T07:43:25;19.00;99.90
36322;DHT22;23564;48.290;11.460;2022-08-25T07:45:51;19.00;99.90
36322;DHT22;23564;48.290;11.460;2022-08-25T07:48:17;19.10;99.90
36322;DHT22;23564;48.290;11.460;2022-08-25T07:50:47;19.20;99.90
36322;DHT22;23564;48.290;11.460;2022-08-25T07:53:14;19.20;99.90
36322;DHT22;23564;48.290;11.460;2022-08-25T07:55:40;19.20;99.90
36322;DHT22;23564;48.290;11.460;2022-08-25T07:58:07;19.30;99.90
36322;DHT22;23564;48.290;11.460;2022-08-25T08:00:34;19.30;99.90
36322;DHT22;23564;48.290;11.460;2022-08-25T08:03:03;19.30;99.90
36322;DHT22;23564;48.290;11.460;2022-08-25T08:05:29;19.40;99.90
36322;DHT22;23564;48.290;11.460;2022-08-25T08:07:55;19.50;99.90
36322;DHT22;23564;48.290;11.460;2022-08-25T08:10:21;19.50;99.90
36322;DHT22;23564;48.290;11.460;2022-08-25T08:12:47;19.50;99.90
36322;DHT22;23564;48.290;11.460;2022-08-25T08:15:14;19.60;99.90
36322;DHT22;23564;48.290;11.460;2022-08-25T08:17:40;19.60;99.90
36322;DHT22;23564;48.290;11.460;2022-08-25T08:20:08;19.70;99.90
36322;DHT22;23564;48.290;11.460;2022-08-25T08:22:35;19.70;99.90
36322;DHT22;23564;48.290;11.460;2022-08-25T08:25:02;19.80;97.60
36322;DHT22;23564;48.290;11.460;2022-08-25T08:27:28;19.80;99.90
36322;DHT22;23564;48.290;11.460;2022-08-25T08:29:53;19.90;99.90
36322;DHT22;23564;48.290;11.460;2022-08-25T08:32:19;19.90;83.80
36322;DHT22;23564;48.290;11.460;2022-08-25T08:34:45;19.90;98.10
36322;DHT22;23564;48.290;11.460;2022-08-25T08:37:12;20.00;33.10
36322;DHT22;23564;48.290;11.460;2022-08-25T08:39:38;20.00;64.90
36322;DHT22;23564;48.290;11.460;2022-08-25T08:43:11;20.00;70.40
36322;DHT22;23564;48.290;11.460;2022-08-25T08:45:27;20.00;97.70
36322;DHT22;23564;48.290;11.460;2022-08-25T08:51:46;20.20;3.90
36322;DHT22;23564;48.290;11.460;2022-08-25T08:53:51;20.30;1.00
36322;DHT22;23564;48.290;11.460;2022-08-25T09:01:29;20.40;1.00
36322;DHT22;23564;48.290;11.460;2022-08-25T09:04:02;20.50;1.00
36322;DHT22;23564;48.290;11.460;2022-08-25T09:06:41;20.60;1.00
36322;DHT22;23564;48.290;11.460;2022-08-25T09:09:08;20.60;99.90
36322;DHT22;23564;48.290;11.460;2022-08-25T09:14:52;20.70;99.90
36322;DHT22;23564;48.290;11.460;2022-08-25T09:28:50;20.90;99.90
36322;DHT22;23564;48.290;11.460;2022-08-25T09:31:29;20.90;99.90
36322;DHT22;23564;48.290;11.460;2022-08-25T09:33:59;21.00;99.90
36322;DHT22;23564;48.290;11.460;2022-08-25T09:36:25;21.10;99.90
36322;DHT22;23564;48.290;11.460;2022-08-25T09:38:51;21.20;42.80
36322;DHT22;23564;48.290;11.460;2022-08-25T09:41:41;21.30;16.40
36322;DHT22;23564;48.290;11.460;2022-08-25T09:44:23;21.30;1.00
36322;DHT22;23564;48.290;11.460;2022-08-25T09:49:58;21.50;99.90
36322;DHT22;23564;48.290;11.460;2022-08-25T09:54:54;21.60;99.90
36322;DHT22;23564;48.290;11.460;2022-08-25T09:57:33;21.60;99.90
36322;DHT22;23564;48.290;11.460;2022-08-25T10:00:33;21.70;99.90
36322;DHT22;23564;48.290;11.460;2022-08-25T10:03:21;21.80;1.00
36322;DHT22;23564;48.290;11.460;2022-08-25T10:06:06;21.80;90.20
36322;DHT22;23564;48.290;11.460;2022-08-25T10:08:35;22.00;1.00
36322;DHT22;23564;48.290;11.460;2022-08-25T10:11:08;22.00;1.00
36322;DHT22;23564;48.290;11.460;2022-08-25T10:13:45;22.10;99.90
36322;DHT22;23564;48.290;11.460;2022-08-25T10:16:28;22.20;99.90
36322;DHT22;23564;48.290;11.460;2022-08-25T10:19:12;22.30;1.00
36322;DHT22;23564;48.290;11.460;2022-08-25T10:21:41;22.30;99.90
36322;DHT22;23564;48.290;11.460;2022-08-25T10:24:11;22.30;99.90
36322;DHT22;23564;48.290;11.460;2022-08-25T10:27:04;22.40;99.90
36322;DHT22;23564;48.290;11.460;2022-08-25T10:30:52;22.50;99.90
36322;DHT22;23564;48.290;11.460;2022-08-25T10:50:09;22.70;35.90
36322;DHT22;23564;48.290;11.460;2022-08-25T10:55:38;22.70;99.90
36322;DHT22;23564;48.290;11.460;2022-08-25T10:58:18;22.80;99.90
36322;DHT22;23564;48.290;11.460;2022-08-25T11:04:04;22.70;16.60
36322;DHT22;23564;48.290;11.460;2022-08-25T11:06:43;22.70;2.50
36322;DHT22;23564;48.290;11.460;2022-08-25T11:09:16;22.70;29.70
36322;DHT22;23564;48.290;11.460;2022-08-25T11:11:56;22.80;51.60
36322;DHT22;23564;48.290;11.460;2022-08-25T11:14:39;23.00;1.00
36322;DHT22;23564;48.290;11.460;2022-08-25T11:19:46;23.20;1.00
36322;DHT22;23564;48.290;11.460;2022-08-25T11:22:40;23.40;1.00
36322;DHT22;23564;48.290;11.460;2022-08-25T11:25:26;23.50;1.00
36322;DHT22;23564;48.290;11.460;2022-08-25T11:28:03;23.60;1.00
36322;DHT22;23564;48.290;11.460;2022-08-25T11:30:30;23.70;1.00
36322;DHT22;23564;48.290;11.460;2022-08-25T11:32:56;23.70;1.00
36322;DHT22;23564;48.290;11.460;2022-08-25T11:35:52;23.80;1.00
36322;DHT22;23564;48.290;11.460;2022-08-25T11:46:36;24.00;99.90
36322;DHT22;23564;48.290;11.460;2022-08-25T11:52:41;24.10;99.90
36322;DHT22;23564;48.290;11.460;2022-08-25T11:57:49;24.20;99.90
36322;DHT22;23564;48.290;11.460;2022-08-25T12:00:35;24.20;99.90
36322;DHT22;23564;48.290;11.460;2022-08-25T12:06:20;24.50;96.90
36322;DHT22;23564;48.290;11.460;2022-08-25T12:14:34;24.80;99.90
36322;DHT22;23564;48.290;11.460;2022-08-25T12:17:18;24.70;99.90
36322;DHT22;23564;48.290;11.460;2022-08-25T12:35:14;24.80;99.90
36322;DHT22;23564;48.290;11.460;2022-08-25T12:38:17;24.90;1.00
36322;DHT22;23564;48.290;11.460;2022-08-25T12:41:05;24.90;99.90
36322;DHT22;23564;48.290;11.460;2022-08-25T12:43:34;24.90;1.00
36322;DHT22;23564;48.290;11.460;2022-08-25T12:48:58;24.80;99.90
36322;DHT22;23564;48.290;11.460;2022-08-25T12:53:58;24.70;99.90
36322;DHT22;23564;48.290;11.460;2022-08-25T12:56:36;24.70;99.90
36322;DHT22;23564;48.290;11.460;2022-08-25T12:59:16;24.70;99.90
36322;DHT22;23564;48.290;11.460;2022-08-25T13:02:04;24.70;99.90
36322;DHT22;23564;48.290;11.460;2022-08-25T13:07:47;24.70;99.90
36322;DHT22;23564;48.290;11.460;2022-08-25T13:10:40;24.90;99.90
36322;DHT22;23564;48.290;11.460;2022-08-25T13:16:07;25.00;99.90
36322;DHT22;23564;48.290;11.460;2022-08-25T13:18:36;25.00;99.90
36322;DHT22;23564;48.290;11.460;2022-08-25T13:21:07;25.10;99.90
36322;DHT22;23564;48.290;11.460;2022-08-25T13:23:37;25.20;99.90
36322;DHT22;23564;48.290;11.460;2022-08-25T13:26:05;25.40;99.90
36322;DHT22;23564;48.290;11.460;2022-08-25T13:28:34;25.50;99.90
36322;DHT22;23564;48.290;11.460;2022-08-25T13:31:20;25.70;99.90
36322;DHT22;23564;48.290;11.460;2022-08-25T13:34:02;25.70;93.00
36322;DHT22;23564;48.290;11.460;2022-08-25T13:36:31;25.70;1.00
36322;DHT22;23564;48.290;11.460;2022-08-25T13:39:29;25.70;1.00
36322;DHT22;23564;48.290;11.460;2022-08-25T13:41:58;25.60;1.00
36322;DHT22;23564;48.290;11.460;2022-08-25T13:44:27;25.50;1.00
36322;DHT22;23564;48.290;11.460;2022-08-25T13:47:14;25.30;1.00
36322;DHT22;23564;48.290;11.460;2022-08-25T13:49:44;25.20;1.00
36322;DHT22;23564;48.290;11.460;2022-08-25T13:52:39;25.10;1.00
36322;DHT22;23564;48.290;11.460;2022-08-25T13:55:05;25.10;1.00
36322;DHT22;23564;48.290;11.460;2022-08-25T13:57:32;25.10;1.00
36322;DHT22;23564;48.290;11.460;2022-08-25T14:00:03;25.10;1.00
36322;DHT22;23564;48.290;11.460;2022-08-25T14:05:11;25.20;1.00
36322;DHT22;23564;48.290;11.460;2022-08-25T14:07:38;25.20;1.00
36322;DHT22;23564;48.290;11.460;2022-08-25T14:10:10;25.20;1.00
36322;DHT22;23564;48.290;11.460;2022-08-25T14:13:11;25.20;1.00
36322;DHT22;23564;48.290;11.460;2022-08-25T14:15:37;25.20;1.00
36322;DHT22;23564;48.290;11.460;2022-08-25T14:18:19;25.10;1.00
36322;DHT22;23564;48.290;11.460;2022-08-25T14:20:48;25.00;1.00
36322;DHT22;23564;48.290;11.460;2022-08-25T14:23:17;25.00;1.00
36322;DHT22;23564;48.290;11.460;2022-08-25T14:25:44;24.90;1.00
36322;DHT22;23564;48.290;11.460;2022-08-25T14:28:13;24.90;1.00
36322;DHT22;23564;48.290;11.460;2022-08-25T14:30:42;24.90;1.00
36322;DHT22;23564;48.290;11.460;2022-08-25T14:33:09;24.90;1.00
36322;DHT22;23564;48.290;11.460;2022-08-25T14:35:34;24.90;1.00
36322;DHT22;23564;48.290;11.460;2022-08-25T14:38:08;24.90;1.00
36322;DHT22;23564;48.290;11.460;2022-08-25T14:40:34;24.90;1.00
36322;DHT22;23564;48.290;11.460;2022-08-25T14:43:00;24.90;99.90
36322;DHT22;23564;48.290;11.460;2022-08-25T14:45:25;25.00;99.90
36322;DHT22;23564;48.290;11.460;2022-08-25T14:47:51;25.10;1.00
36322;DHT22;23564;48.290;11.460;2022-08-25T14:50:18;25.10;1.00
36322;DHT22;23564;48.290;11.460;2022-08-25T14:52:44;25.20;1.00
36322;DHT22;23564;48.290;11.460;2022-08-25T14:55:10;25.30;1.00
36322;DHT22;23564;48.290;11.460;2022-08-25T14:57:37;25.40;1.00
36322;DHT22;23564;48.290;11.460;2022-08-25T15:00:03;25.50;1.00
36322;DHT22;23564;48.290;11.460;2022-08-25T15:02:30;25.60;1.00
36322;DHT22;23564;48.290;11.460;2022-08-25T15:04:59;25.80;1.00
36322;DHT22;23564;48.290;11.460;2022-08-25T15:07:31;26.10;1.00
36322;DHT22;23564;48.290;11.460;2022-08-25T15:10:16;26.20;99.90
36322;DHT22;23564;48.290;11.460;2022-08-25T15:12:41;26.40;99.90
36322;DHT22;23564;48.290;11.460;2022-08-25T15:15:08;26.50;1.00
36322;DHT22;23564;48.290;11.460;2022-08-25T15:17:34;26.70;99.90
36322;DHT22;23564;48.290;11.460;2022-08-25T15:20:00;26.80;99.90
36322;DHT22;23564;48.290;11.460;2022-08-25T15:22:26;26.90;99.90
36322;DHT22;23564;48.290;11.460;2022-08-25T15:24:51;26.90;99.90
36322;DHT22;23564;48.290;11.460;2022-08-25T15:27:19;26.90;99.90
36322;DHT22;23564;48.290;11.460;2022-08-25T15:29:44;26.90;99.90
36322;DHT22;23564;48.290;11.460;2022-08-25T15:32:10;26.90;95.30
36322;DHT22;23564;48.290;11.460;2022-08-25T15:34:36;26.90;99.90
36322;DHT22;23564;48.290;11.460;2022-08-25T15:37:11;26.80;99.90
36322;DHT22;23564;48.290;11.460;2022-08-25T15:39:39;26.70;99.90
36322;DHT22;23564;48.290;11.460;2022-08-25T15:42:07;26.70;99.90
36322;DHT22;23564;48.290;11.460;2022-08-25T15:44:33;26.50;99.90
36322;DHT22;23564;48.290;11.460;2022-08-25T15:46:59;26.40;99.90
36322;DHT22;23564;48.290;11.460;2022-08-25T15:49:26;26.30;99.90
36322;DHT22;23564;48.290;11.460;2022-08-25T15:51:53;26.20;96.70
36322;DHT22;23564;48.290;11.460;2022-08-25T15:54:20;26.20;75.20
36322;DHT22;23564;48.290;11.460;2022-08-25T15:56:45;26.10;69.90
36322;DHT22;23564;48.290;11.460;2022-08-25T15:59:12;25.90;99.90
36322;DHT22;23564;48.290;11.460;2022-08-25T16:01:38;25.70;44.70
36322;DHT22;23564;48.290;11.460;2022-08-25T16:04:04;25.70;34.40
36322;DHT22;23564;48.290;11.460;2022-08-25T16:06:30;25.60;68.40
36322;DHT22;23564;48.290;11.460;2022-08-25T16:08:55;25.50;99.90
36322;DHT22;23564;48.290;11.460;2022-08-25T16:11:27;25.50;99.90
36322;DHT22;23564;48.290;11.460;2022-08-25T16:13:55;25.50;99.90
36322;DHT22;23564;48.290;11.460;2022-08-25T16:16:22;25.50;99.90
36322;DHT22;23564;48.290;11.460;2022-08-25T16:18:49;25.50;99.90
36322;DHT22;23564;48.290;11.460;2022-08-25T16:21:21;25.50;99.90
36322;DHT22;23564;48.290;11.460;2022-08-25T16:23:49;25.40;99.90
36322;DHT22;23564;48.290;11.460;2022-08-25T16:26:17;25.40;99.90
36322;DHT22;23564;48.290;11.460;2022-08-25T16:28:43;25.50;99.90
36322;DHT22;23564;48.290;11.460;2022-08-25T16:31:11;25.40;99.90
36322;DHT22;23564;48.290;11.460;2022-08-25T16:33:37;25.20;99.90
36322;DHT22;23564;48.290;11.460;2022-08-25T16:36:08;25.20;99.90
36322;DHT22;23564;48.290;11.460;2022-08-25T16:38:34;25.10;99.90
36322;DHT22;23564;48.290;11.460;2022-08-25T16:41:07;25.10;99.90
36322;DHT22;23564;48.290;11.460;2022-08-25T16:43:33;25.10;99.90
36322;DHT22;23564;48.290;11.460;2022-08-25T16:46:04;25.00;99.90
36322;DHT22;23564;48.290;11.460;2022-08-25T16:48:31;25.00;99.90
36322;DHT22;23564;48.290;11.460;2022-08-25T16:50:56;24.90;99.90
36322;DHT22;23564;48.290;11.460;2022-08-25T16:53:23;24.90;99.90
36322;DHT22;23564;48.290;11.460;2022-08-25T16:56:07;24.90;99.90
36322;DHT22;23564;48.290;11.460;2022-08-25T16:58:33;24.70;99.90
36322;DHT22;23564;48.290;11.460;2022-08-25T17:01:17;24.70;99.90
36322;DHT22;23564;48.290;11.460;2022-08-25T17:03:43;24.70;99.90
36322;DHT22;23564;48.290;11.460;2022-08-25T17:06:08;24.60;99.90
36322;DHT22;23564;48.290;11.460;2022-08-25T17:08:34;24.50;99.90
36322;DHT22;23564;48.290;11.460;2022-08-25T17:11:24;24.40;99.90
36322;DHT22;23564;48.290;11.460;2022-08-25T17:13:54;24.30;99.90
36322;DHT22;23564;48.290;11.460;2022-08-25T17:16:22;24.20;99.90
36322;DHT22;23564;48.290;11.460;2022-08-25T17:18:50;24.10;1.00
36322;DHT22;23564;48.290;11.460;2022-08-25T17:21:17;23.90;1.00
36322;DHT22;23564;48.290;11.460;2022-08-25T17:23:44;23.80;1.00
36322;DHT22;23564;48.290;11.460;2022-08-25T17:26:11;23.70;1.00
36322;DHT22;23564;48.290;11.460;2022-08-25T17:28:38;23.60;1.00